Time;durP1;ratioP1;P1;durP2;ratioP2;P2;SDS_P1;SDS_P2;PMS_P1;PMS_P2;Temp;Humidity;BMP_temperature;BMP_pressure;BME280_temperature;BME280_humidity;BME280_pressure;Samples;Min_cycle;Max_cycle;Signal;HPM_P1;HPM_P2
2022/07/31 00:00:09;;;;;;;6.45;1.85;;;;;;;21.75;51.60;98829.00;4176649;28;20649;-57
2022/07/31 00:02:11;;;;;;;2.15;1.95;;;;;;;21.70;52.08;98829.16;4174903;28;20289;-58
2022/07/31 00:04:13;;;;;;;3.92;1.70;;;;;;;21.63;51.82;98823.16;4174910;28;20293;-56
2022/07/31 00:06:15;;;;;;;2.00;1.80;;;;;;;21.58;51.93;98817.69;4171891;28;20258;-55
2022/07/31 00:08:17;;;;;;;1.95;1.67;;;;;;;21.52;52.06;98821.72;4160596;28;20258;-57
2022/07/31 00:10:19;;;;;;;2.45;1.60;;;;;;;21.45;52.23;98822.13;4172351;28;20203;-57
2022/07/31 00:12:21;;;;;;;4.47;2.10;;;;;;;21.44;52.54;98825.25;4175653;28;20246;-58
2022/07/31 00:14:23;;;;;;;2.20;1.67;;;;;;;21.39;52.56;98822.56;4169564;28;20692;-57
2022/07/31 00:16:25;;;;;;;2.95;1.70;;;;;;;21.36;52.62;98814.81;4187479;28;20204;-58
2022/07/31 00:18:27;;;;;;;1.98;1.88;;;;;;;21.35;52.48;98818.75;4169236;28;20196;-58
2022/07/31 00:20:28;;;;;;;2.95;2.55;;;;;;;21.31;52.79;98810.19;4172292;28;20208;-55
2022/07/31 00:22:30;;;;;;;1.50;1.40;;;;;;;21.30;52.80;98816.91;4169490;28;20262;-57
2022/07/31 00:24:33;;;;;;;2.28;1.80;;;;;;;21.28;52.71;98821.13;4169608;28;20262;-57
2022/07/31 00:26:34;;;;;;;2.22;2.08;;;;;;;21.24;53.04;98820.94;4172523;28;20212;-58
2022/07/31 00:28:36;;;;;;;2.28;1.88;;;;;;;21.19;52.97;98823.81;4177643;28;20211;-57
2022/07/31 00:30:38;;;;;;;2.22;1.98;;;;;;;21.11;53.36;98820.97;4183687;28;20203;-57
2022/07/31 00:32:40;;;;;;;2.50;2.00;;;;;;;21.05;53.28;98820.22;4169034;28;20207;-57
2022/07/31 00:34:42;;;;;;;1.92;1.60;;;;;;;21.02;53.40;98811.69;4176174;28;20211;-57
2022/07/31 00:36:44;;;;;;;2.08;1.40;;;;;;;21.00;53.41;98822.31;4188481;28;20246;-57
2022/07/31 00:38:45;;;;;;;4.00;2.20;;;;;;;20.98;53.53;98819.03;4176441;28;20218;-56
2022/07/31 00:40:48;;;;;;;1.98;1.80;;;;;;;20.94;53.69;98821.59;4173738;28;20204;-57
2022/07/31 00:42:49;;;;;;;2.97;1.95;;;;;;;20.91;53.56;98811.06;4174483;28;20199;-57
2022/07/31 00:44:51;;;;;;;2.75;2.22;;;;;;;20.88;53.65;98811.72;4175133;28;20720;-57
2022/07/31 00:46:53;;;;;;;3.92;1.60;;;;;;;20.87;53.95;98817.53;4168875;28;20204;-56
2022/07/31 00:48:55;;;;;;;2.17;1.67;;;;;;;20.80;54.12;98814.34;4175581;28;20199;-57
2022/07/31 00:50:57;;;;;;;2.30;2.10;;;;;;;20.70;54.22;98815.38;4171180;28;20231;-56
2022/07/31 00:52:58;;;;;;;2.60;1.90;;;;;;;20.67;54.14;98815.16;4157541;28;20250;-57
2022/07/31 00:55:00;;;;;;;2.75;2.33;;;;;;;20.65;54.30;98817.44;4173646;28;20737;-57
2022/07/31 00:57:02;;;;;;;1.80;1.70;;;;;;;20.61;54.51;98811.66;4176178;28;20754;-56
2022/07/31 00:59:05;;;;;;;1.98;1.58;;;;;;;20.56;54.41;98808.13;4180740;28;20210;-58
2022/07/31 01:01:06;;;;;;;1.60;1.50;;;;;;;20.49;54.13;98810.50;4167225;28;20223;-57
2022/07/31 01:03:08;;;;;;;2.88;1.73;;;;;;;20.44;54.18;98808.66;4171780;28;20208;-57
2022/07/31 01:05:10;;;;;;;2.15;2.03;;;;;;;20.47;53.85;98815.56;4169123;28;20290;-56
2022/07/31 01:07:12;;;;;;;2.15;1.60;;;;;;;20.51;53.79;98811.03;4169417;28;20254;-57
2022/07/31 01:09:14;;;;;;;2.55;1.85;;;;;;;20.51;53.79;98816.59;4171319;28;20542;-57
2022/07/31 01:11:19;;;;;;;3.63;1.88;;;;;;;20.47;53.86;98815.56;4168594;28;20226;-57
2022/07/31 01:13:53;;;;;;;1.98;1.63;;;;;;;20.47;53.95;98813.59;4167275;28;20258;-56
2022/07/31 01:15:56;;;;;;;2.30;2.10;;;;;;;20.46;53.94;98808.34;4163956;28;20211;-55
2022/07/31 01:17:58;;;;;;;2.58;1.85;;;;;;;20.46;54.24;98808.34;4157671;28;20196;-55
2022/07/31 01:20:00;;;;;;;2.50;2.30;;;;;;;20.41;54.55;98805.66;4169001;28;20246;-57
2022/07/31 01:22:39;;;;;;;2.60;1.83;;;;;;;20.36;54.64;98798.22;4168237;28;20224;-56
2022/07/31 01:25:05;;;;;;;2.95;2.00;;;;;;;20.33;54.61;98798.03;4183049;28;21958;-55
2022/07/31 01:27:20;;;;;;;2.08;1.88;;;;;;;20.38;54.56;98801.53;4183093;28;20277;-55
2022/07/31 01:29:26;;;;;;;2.50;1.67;;;;;;;20.38;54.67;98801.53;4185587;28;20234;-55
2022/07/31 01:31:42;;;;;;;2.03;1.80;;;;;;;20.37;54.82;98801.84;4170450;28;20227;-57
2022/07/31 01:33:59;;;;;;;1.90;1.70;;;;;;;20.34;54.65;98794.09;4185247;28;20256;-55
2022/07/31 01:36:10;;;;;;;1.73;1.60;;;;;;;20.35;54.70;98801.31;4182798;28;20293;-57
2022/07/31 01:38:16;;;;;;;2.63;1.67;;;;;;;20.34;54.81;98791.31;4175197;28;20281;-55
2022/07/31 01:40:37;;;;;;;1.70;1.60;;;;;;;20.30;55.20;98795.88;4185416;28;20215;-56
2022/07/31 01:42:42;;;;;;;2.28;1.80;;;;;;;20.23;55.50;98792.63;4171281;28;20720;-55
2022/07/31 01:44:45;;;;;;;2.40;2.20;;;;;;;20.20;55.46;98793.25;4171351;28;20225;-55
2022/07/31 01:46:47;;;;;;;2.42;1.80;;;;;;;20.16;55.57;98794.97;4173479;28;20216;-55
2022/07/31 01:48:51;;;;;;;3.15;2.25;;;;;;;20.12;55.60;98792.00;4174679;28;20243;-58
2022/07/31 01:50:54;;;;;;;1.83;1.58;;;;;;;20.14;55.73;98800.03;4173768;28;20250;-55
2022/07/31 01:52:57;;;;;;;2.35;2.03;;;;;;;20.13;55.68;98798.38;4169918;28;20195;-55
2022/07/31 01:55:00;;;;;;;1.90;1.80;;;;;;;20.11;55.97;98789.53;4173800;28;20651;-55
2022/07/31 01:57:03;;;;;;;2.72;1.98;;;;;;;20.08;56.03;98790.13;4174898;28;20345;-58
2022/07/31 01:59:06;;;;;;;2.28;2.08;;;;;;;20.05;56.03;98797.13;4173085;28;20204;-57
2022/07/31 02:01:23;;;;;;;3.38;1.83;;;;;;;20.05;55.83;98793.50;4173226;28;20223;-58
2022/07/31 02:03:29;;;;;;;4.80;1.95;;;;;;;20.09;55.95;98797.34;4157215;28;20216;-56
2022/07/31 02:05:46;;;;;;;1.77;1.67;;;;;;;20.11;56.37;98789.53;4173779;28;20219;-56
2022/07/31 02:07:48;;;;;;;4.93;2.25;;;;;;;20.09;56.24;98786.22;4176174;28;20673;-58
2022/07/31 02:09:51;;;;;;;1.83;1.60;;;;;;;20.06;56.07;98789.63;4154751;28;20612;-57
2022/07/31 02:11:59;;;;;;;3.28;2.13;;;;;;;20.04;55.98;98791.88;4169649;28;20231;-56
2022/07/31 02:14:01;;;;;;;1.95;1.73;;;;;;;20.05;55.85;98785.16;4172531;28;20278;-58
2022/07/31 02:16:04;;;;;;;3.03;2.20;;;;;;;20.05;55.69;98791.56;4172454;28;20215;-57
2022/07/31 02:18:06;;;;;;;1.60;1.45;;;;;;;20.03;55.75;98782.69;4186897;28;20207;-55
2022/07/31 02:20:11;;;;;;;2.03;1.90;;;;;;;20.03;56.28;98777.13;4187279;28;20242;-58
2022/07/31 02:22:12;;;;;;;2.70;2.15;;;;;;;20.00;56.09;98786.09;4172324;28;20215;-57
2022/07/31 02:24:15;;;;;;;2.00;1.90;;;;;;;20.00;56.22;98779.69;4171461;28;20265;-56
2022/07/31 02:26:17;;;;;;;2.38;1.88;;;;;;;19.99;56.07;98776.06;4158861;28;20258;-57
2022/07/31 02:28:21;;;;;;;2.05;1.75;;;;;;;20.01;56.06;98782.16;4172514;28;20204;-57
2022/07/31 02:30:26;;;;;;;2.33;2.00;;;;;;;20.01;56.25;98778.56;4170604;28;20216;-55
2022/07/31 02:32:40;;;;;;;1.98;1.70;;;;;;;20.03;56.21;98776.28;4173847;28;20709;-57
2022/07/31 02:34:43;;;;;;;2.30;1.95;;;;;;;20.03;56.25;98770.72;4174904;28;20233;-58
2022/07/31 02:36:46;;;;;;;3.22;2.75;;;;;;;20.01;56.18;98771.06;4169822;28;20208;-56
2022/07/31 02:38:49;;;;;;;3.10;2.03;;;;;;;19.99;56.23;98775.28;4171218;28;20235;-57
2022/07/31 02:40:54;;;;;;;2.38;2.00;;;;;;;19.98;56.34;98773.63;4186072;28;20215;-57
2022/07/31 02:42:56;;;;;;;2.08;1.98;;;;;;;19.96;56.31;98775.84;4173645;28;20325;-56
2022/07/31 02:45:00;;;;;;;3.63;2.25;;;;;;;19.95;56.36;98777.00;4171929;28;20228;-56
2022/07/31 02:47:04;;;;;;;2.28;1.85;;;;;;;19.93;56.65;98765.38;4154160;28;20212;-56
2022/07/31 02:49:06;;;;;;;2.15;1.92;;;;;;;19.89;56.70;98775.44;4174456;28;20309;-56
2022/07/31 02:51:08;;;;;;;2.53;1.98;;;;;;;19.87;56.57;98767.41;4188083;28;20227;-56
2022/07/31 02:53:10;;;;;;;2.75;2.45;;;;;;;19.86;56.43;98776.06;4178156;28;20709;-55
2022/07/31 02:55:12;;;;;;;1.77;1.67;;;;;;;19.85;56.33;98775.22;4181657;28;20196;-55
2022/07/31 02:57:16;;;;;;;2.10;1.90;;;;;;;19.85;56.45;98772.44;4175934;28;20820;-58
2022/07/31 02:59:18;;;;;;;1.88;1.45;;;;;;;19.86;56.45;98770.50;4177986;28;20211;-57
2022/07/31 03:01:20;;;;;;;1.90;1.80;;;;;;;19.86;56.62;98767.72;4176840;28;20289;-57
2022/07/31 03:03:21;;;;;;;1.73;1.63;;;;;;;19.86;56.58;98776.06;4170919;28;20291;-57
2022/07/31 03:05:23;;;;;;;2.92;2.35;;;;;;;19.85;56.70;98779.97;4155313;28;20225;-56
2022/07/31 03:07:25;;;;;;;1.73;1.20;;;;;;;19.83;56.64;98771.09;4175170;28;20341;-57
2022/07/31 03:09:29;;;;;;;3.17;2.15;;;;;;;19.83;56.82;98759.97;4175216;28;20266;-56
2022/07/31 03:11:31;;;;;;;3.20;2.90;;;;;;;19.82;57.15;98775.00;4172675;28;20239;-57
2022/07/31 03:13:34;;;;;;;4.57;3.03;;;;;;;19.82;57.37;98770.28;4171026;28;20208;-56
2022/07/31 03:15:38;;;;;;;4.70;3.50;;;;;;;19.76;57.52;98770.66;4186375;28;20294;-56
2022/07/31 03:17:40;;;;;;;5.43;3.53;;;;;;;19.78;57.51;98768.41;4175331;28;20204;-55
2022/07/31 03:19:42;;;;;;;4.68;4.28;;;;;;;19.76;57.68;98765.09;4168525;28;20220;-57
2022/07/31 03:21:44;;;;;;;5.07;4.57;;;;;;;19.74;57.87;98764.59;4168336;28;20399;-55
2022/07/31 03:23:46;;;;;;;5.10;4.55;;;;;;;19.74;57.88;98759.03;4175575;28;20254;-56
2022/07/31 03:25:49;;;;;;;5.57;4.10;;;;;;;19.75;57.77;98769.00;4187975;28;20748;-56
2022/07/31 03:27:51;;;;;;;4.57;3.95;;;;;;;19.74;57.92;98761.81;4175731;28;20237;-56
2022/07/31 03:29:57;;;;;;;3.88;2.97;;;;;;;19.74;57.79;98762.63;4171662;28;20287;-57
2022/07/31 03:31:59;;;;;;;2.60;2.40;;;;;;;19.73;57.58;98757.38;4170546;28;20278;-56
2022/07/31 03:34:01;;;;;;;7.38;2.33;;;;;;;19.72;57.45;98762.09;4158065;28;20627;-58
2022/07/31 03:36:03;;;;;;;2.67;2.25;;;;;;;19.69;57.48;98759.09;4170977;28;20831;-55
2022/07/31 03:38:05;;;;;;;2.63;2.42;;;;;;;19.68;57.39;98757.47;4187751;28;20199;-56
2022/07/31 03:40:27;;;;;;;2.90;2.42;;;;;;;19.67;57.34;98755.81;4173882;28;20226;-57
2022/07/31 03:42:28;;;;;;;2.22;2.03;;;;;;;19.66;57.55;98751.41;4180037;28;21273;-57
2022/07/31 03:44:31;;;;;;;2.35;2.08;;;;;;;19.62;57.61;98753.94;4160257;28;20204;-57
2022/07/31 03:46:33;;;;;;;7.72;2.53;;;;;;;19.59;57.69;98750.94;4188183;28;20227;-55
2022/07/31 03:48:35;;;;;;;2.72;2.53;;;;;;;19.54;57.94;98757.41;4184709;28;20740;-57
2022/07/31 03:50:38;;;;;;;2.25;2.13;;;;;;;19.49;58.27;98756.66;4155063;28;20228;-55
2022/07/31 03:52:40;;;;;;;2.50;2.30;;;;;;;19.47;58.29;98762.53;4155613;28;20698;-56
2022/07/31 03:54:41;;;;;;;3.35;2.25;;;;;;;19.47;58.26;98765.31;4186962;28;20241;-57
2022/07/31 03:56:46;;;;;;;2.63;2.42;;;;;;;19.49;58.23;98771.38;4176934;28;20200;-57
2022/07/31 03:58:49;;;;;;;2.75;2.30;;;;;;;19.52;58.12;98769.94;4167733;28;20234;-56
2022/07/31 04:00:53;;;;;;;2.80;2.47;;;;;;;19.55;58.06;98774.88;4170344;28;20224;-57
2022/07/31 04:02:56;;;;;;;2.42;2.22;;;;;;;19.56;57.85;98770.97;4178037;28;20221;-56
2022/07/31 04:04:58;;;;;;;3.03;2.42;;;;;;;19.60;57.89;98770.09;4169773;28;20603;-57
2022/07/31 04:07:00;;;;;;;2.88;2.65;;;;;;;19.62;58.05;98775.31;4170299;28;20200;-55
2022/07/31 04:09:02;;;;;;;2.97;2.67;;;;;;;19.60;58.52;98766.47;4172754;28;20254;-55
2022/07/31 04:11:19;;;;;;;2.53;2.33;;;;;;;19.61;58.37;98768.13;4157445;28;20237;-55
2022/07/31 04:13:21;;;;;;;3.45;2.20;;;;;;;19.60;58.66;98766.47;4159543;28;20212;-55
2022/07/31 04:15:23;;;;;;;2.58;2.38;;;;;;;19.67;58.72;98761.38;4175076;28;20688;-56
2022/07/31 04:17:24;;;;;;;2.83;2.63;;;;;;;19.38;59.12;98761.53;4172371;28;20215;-55
2022/07/31 04:19:29;;;;;;;2.75;1.85;;;;;;;19.30;58.93;98758.59;4175364;28;20208;-56
2022/07/31 04:21:31;;;;;;;2.97;2.67;;;;;;;19.07;59.35;98757.56;4168567;28;20266;-55
2022/07/31 04:23:33;;;;;;;3.63;2.55;;;;;;;18.97;59.59;98756.88;4175018;28;20212;-57
2022/07/31 04:25:34;;;;;;;2.38;2.15;;;;;;;18.99;59.47;98755.41;4156690;28;20655;-57
2022/07/31 04:27:36;;;;;;;4.00;2.42;;;;;;;19.01;59.38;98750.41;4169722;28;20208;-57
2022/07/31 04:29:49;;;;;;;2.13;1.95;;;;;;;19.12;59.43;98762.19;4173375;28;20208;-55
2022/07/31 04:31:50;;;;;;;2.78;1.85;;;;;;;19.21;58.98;98755.72;4169433;28;20710;-57
2022/07/31 04:33:52;;;;;;;2.38;2.17;;;;;;;19.27;59.15;98757.28;4174484;28;20204;-56
2022/07/31 04:35:57;;;;;;;3.05;2.33;;;;;;;19.27;59.05;98757.28;4175454;28;20301;-56
2022/07/31 04:37:59;;;;;;;2.55;2.13;;;;;;;19.34;59.00;98762.44;4167167;28;20200;-56
2022/07/31 04:40:01;;;;;;;2.20;1.92;;;;;;;19.38;58.76;98757.97;4168832;28;20676;-57
2022/07/31 04:42:04;;;;;;;2.08;1.98;;;;;;;19.41;58.63;98754.56;4174734;28;20240;-57
2022/07/31 04:44:11;;;;;;;2.65;2.45;;;;;;;19.44;58.66;98763.13;4181776;28;20231;-57
2022/07/31 04:46:13;;;;;;;2.38;2.17;;;;;;;19.50;58.71;98755.53;4176030;28;20224;-56
2022/07/31 04:48:18;;;;;;;2.20;2.00;;;;;;;19.55;58.77;98764.63;4172792;28;20200;-56
2022/07/31 04:50:20;;;;;;;3.80;2.00;;;;;;;19.60;58.52;98764.53;4172399;28;20247;-57
2022/07/31 04:52:21;;;;;;;2.55;2.35;;;;;;;19.64;58.67;98768.34;4174794;28;20262;-57
2022/07/31 04:54:24;;;;;;;2.28;2.08;;;;;;;19.68;58.50;98774.97;4169788;28;20215;-55
2022/07/31 04:56:41;;;;;;;2.13;1.92;;;;;;;19.72;58.57;98775.19;4169457;28;20211;-55
2022/07/31 04:58:42;;;;;;;2.58;2.38;;;;;;;19.74;58.80;98772.91;4171555;28;20204;-58
2022/07/31 05:00:44;;;;;;;2.60;2.28;;;;;;;19.75;58.92;98774.56;4182327;28;20237;-58
2022/07/31 05:02:46;;;;;;;2.42;2.25;;;;;;;19.77;58.99;98775.09;4184489;28;20931;-56
2022/07/31 05:04:48;;;;;;;2.55;2.22;;;;;;;19.77;58.94;98772.31;4176735;28;20208;-57
2022/07/31 05:06:57;;;;;;;2.45;2.25;;;;;;;19.80;59.19;98780.88;4160381;28;20309;-56
2022/07/31 05:08:59;;;;;;;2.30;2.10;;;;;;;19.85;59.08;98777.19;4170416;28;20224;-56
2022/07/31 05:11:22;;;;;;;3.35;2.47;;;;;;;19.84;59.41;98784.69;4174145;28;20712;-55
2022/07/31 05:13:23;;;;;;;3.47;2.53;;;;;;;19.87;59.34;98784.09;4173336;28;20219;-56
2022/07/31 05:15:25;;;;;;;3.17;2.80;;;;;;;19.87;59.08;98772.13;4167722;28;20555;-55
2022/07/31 05:17:27;;;;;;;5.70;2.65;;;;;;;19.87;58.89;98772.13;4175315;28;20212;-55
2022/07/31 05:19:29;;;;;;;2.53;2.08;;;;;;;19.90;58.95;98774.31;4169339;28;20720;-56
2022/07/31 05:21:31;;;;;;;4.95;2.35;;;;;;;19.92;58.92;98780.41;4153571;28;20228;-56
2022/07/31 05:23:32;;;;;;;2.40;2.20;;;;;;;19.96;59.07;98770.31;4171023;28;20204;-55
2022/07/31 05:25:34;;;;;;;2.63;2.08;;;;;;;19.95;60.07;98774.22;4166724;28;20220;-57
2022/07/31 05:27:36;;;;;;;5.15;2.47;;;;;;;19.97;59.54;98767.22;4172451;28;20211;-56
2022/07/31 05:29:41;;;;;;;4.72;2.72;;;;;;;20.00;59.15;98771.34;4184149;28;20280;-57
2022/07/31 05:31:43;;;;;;;2.25;2.10;;;;;;;19.95;58.55;98775.06;4186613;28;20227;-57
2022/07/31 05:34:01;;;;;;;7.03;2.05;;;;;;;19.94;58.42;98767.00;4169242;28;20268;-55
2022/07/31 05:36:03;;;;;;;4.07;2.20;;;;;;;19.84;58.07;98776.34;4175269;28;20211;-56
2022/07/31 05:38:05;;;;;;;3.05;2.47;;;;;;;19.83;58.25;98765.53;4167335;28;20317;-55
2022/07/31 05:40:12;;;;;;;2.50;2.30;;;;;;;19.86;58.70;98764.94;4168652;28;20216;-55
2022/07/31 05:42:14;;;;;;;2.38;1.75;;;;;;;19.94;58.38;98761.47;4169304;28;20216;-57
2022/07/31 05:44:15;;;;;;;2.00;1.90;;;;;;;19.93;58.22;98770.94;4167922;28;20242;-55
2022/07/31 05:46:17;;;;;;;2.55;2.20;;;;;;;19.98;58.00;98768.06;4170642;28;20279;-57
2022/07/31 05:48:19;;;;;;;2.53;2.33;;;;;;;19.99;57.88;98766.94;4169275;28;20213;-57
2022/07/31 05:50:21;;;;;;;2.85;2.65;;;;;;;19.98;57.66;98773.63;4168517;28;21251;-57
2022/07/31 05:52:22;;;;;;;2.28;1.95;;;;;;;19.93;57.67;98762.59;4171966;28;20269;-55
2022/07/31 05:54:24;;;;;;;2.95;2.30;;;;;;;19.90;57.49;98766.00;4157077;28;20215;-55
2022/07/31 05:56:26;;;;;;;3.35;1.90;;;;;;;19.74;57.82;98764.59;4183270;28;20260;-57
2022/07/31 05:58:28;;;;;;;2.40;2.20;;;;;;;19.67;57.87;98766.91;4171766;28;20231;-55
2022/07/31 06:00:30;;;;;;;3.15;2.25;;;;;;;19.66;57.93;98760.53;4184677;28;20245;-56
2022/07/31 06:02:33;;;;;;;3.08;2.50;;;;;;;19.76;57.66;98765.09;4185893;28;20216;-54
2022/07/31 06:04:35;;;;;;;2.40;2.20;;;;;;;19.91;58.97;98768.44;4175255;28;20216;-57
2022/07/31 06:06:36;;;;;;;2.40;2.20;;;;;;;20.05;60.13;98769.34;4166960;28;20689;-56
2022/07/31 06:08:38;;;;;;;2.53;2.13;;;;;;;20.21;59.90;98778.22;4181456;28;20218;-56
2022/07/31 06:10:40;;;;;;;2.30;2.10;;;;;;;20.30;60.27;98777.22;4172269;28;20227;-54
2022/07/31 06:12:42;;;;;;;7.45;2.45;;;;;;;20.42;60.81;98780.34;4168817;28;20373;-56
2022/07/31 06:14:44;;;;;;;2.72;2.10;;;;;;;20.54;60.86;98779.81;4173019;28;20204;-54
2022/07/31 06:16:48;;;;;;;2.63;2.42;;;;;;;20.64;60.98;98782.41;4173470;28;20212;-56
2022/07/31 06:18:51;;;;;;;2.72;2.28;;;;;;;20.75;60.79;98772.72;4174271;28;20208;-56
2022/07/31 06:20:52;;;;;;;2.72;2.42;;;;;;;20.80;60.62;98780.97;4165722;28;20234;-56
2022/07/31 06:22:54;;;;;;;3.22;2.92;;;;;;;20.88;60.17;98783.88;4169961;28;20207;-54
2022/07/31 06:24:56;;;;;;;4.57;2.33;;;;;;;20.92;60.17;98775.72;4176571;28;20246;-54
2022/07/31 06:26:59;;;;;;;2.60;2.40;;;;;;;20.99;59.52;98779.72;4173089;28;20286;-55
2022/07/31 06:29:01;;;;;;;2.85;2.28;;;;;;;21.06;59.56;98779.31;4185819;28;20636;-56
2022/07/31 06:31:03;;;;;;;2.40;2.20;;;;;;;21.07;59.19;98786.53;4175030;28;20300;-55
2022/07/31 06:33:04;;;;;;;5.13;2.53;;;;;;;21.12;59.34;98784.47;4184828;28;20195;-56
2022/07/31 06:35:09;;;;;;;3.90;2.50;;;;;;;21.24;58.20;98781.16;4170397;28;20239;-55
2022/07/31 06:37:11;;;;;;;3.33;2.78;;;;;;;21.26;57.37;98784.44;4186941;28;20651;-55
2022/07/31 06:39:12;;;;;;;2.85;2.15;;;;;;;21.33;56.64;98790.41;4156723;28;20262;-56
2022/07/31 06:41:43;;;;;;;2.45;2.17;;;;;;;21.26;56.98;98785.28;4176494;28;20231;-56
2022/07/31 06:43:36;;;;;;;2.40;2.20;;;;;;;21.30;56.18;98780.72;4170283;28;20204;-57
2022/07/31 06:45:41;;;;;;;2.95;2.35;;;;;;;21.35;55.69;98788.13;4175136;28;20200;-56
2022/07/31 06:47:52;;;;;;;2.72;2.20;;;;;;;21.33;55.01;98785.69;4187255;28;20213;-56
2022/07/31 06:49:54;;;;;;;3.72;2.67;;;;;;;21.41;55.16;98787.72;4186308;28;20210;-55
2022/07/31 06:51:56;;;;;;;4.22;1.80;;;;;;;21.52;54.47;98788.31;4187863;28;20226;-55
2022/07/31 06:53:59;;;;;;;2.40;1.80;;;;;;;21.51;54.76;98783.88;4170377;28;20208;-55
2022/07/31 06:56:01;;;;;;;2.20;1.98;;;;;;;21.60;55.15;98787.53;4173786;28;20199;-54
2022/07/31 06:58:03;;;;;;;2.63;2.00;;;;;;;21.68;55.95;98787.66;4171877;28;20200;-56
2022/07/31 07:00:07;;;;;;;2.10;1.90;;;;;;;21.78;55.67;98784.59;4172734;28;20230;-57
2022/07/31 07:02:21;;;;;;;5.38;2.42;;;;;;;21.87;55.76;98784.69;4170723;28;20230;-56
2022/07/31 07:04:23;;;;;;;2.05;1.95;;;;;;;21.92;54.52;98790.13;4176239;28;20207;-56
2022/07/31 07:06:45;;;;;;;3.25;2.05;;;;;;;21.96;55.26;98782.78;4172709;28;20223;-54
2022/07/31 07:08:46;;;;;;;3.42;2.30;;;;;;;22.05;54.76;98780.88;4173852;28;20218;-55
2022/07/31 07:10:48;;;;;;;2.47;1.80;;;;;;;22.12;55.18;98781.25;4171177;28;20254;-55
2022/07/31 07:12:50;;;;;;;2.72;1.73;;;;;;;22.21;54.87;98779.34;4174268;28;20242;-56
2022/07/31 07:14:54;;;;;;;3.25;2.15;;;;;;;22.49;54.56;98769.66;4167785;28;20306;-54
2022/07/31 07:16:56;;;;;;;3.58;2.30;;;;;;;22.73;53.07;98775.69;4175185;28;20644;-54
2022/07/31 07:18:58;;;;;;;5.45;1.67;;;;;;;22.80;51.85;98771.31;4169927;28;20212;-56
2022/07/31 07:20:59;;;;;;;2.22;1.75;;;;;;;23.12;52.41;98779.28;4176137;28;20283;-55
2022/07/31 07:23:01;;;;;;;3.08;1.70;;;;;;;23.39;50.93;98767.03;4167173;28;20281;-57
2022/07/31 07:25:04;;;;;;;1.75;1.63;;;;;;;23.77;50.24;98769.69;4175704;28;20211;-55
2022/07/31 07:27:05;;;;;;;2.08;1.55;;;;;;;23.91;48.50;98763.94;4171455;28;20232;-54
2022/07/31 07:29:09;;;;;;;2.30;1.58;;;;;;;24.19;48.90;98770.81;4170863;28;20230;-56
2022/07/31 07:31:11;;;;;;;1.73;1.50;;;;;;;24.28;47.29;98769.66;4169410;28;20228;-57
2022/07/31 07:33:13;;;;;;;2.53;2.03;;;;;;;24.34;47.82;98771.09;4173950;28;20207;-57
2022/07/31 07:35:35;;;;;;;1.70;1.60;;;;;;;24.64;48.36;98767.25;4154616;28;20673;-56
2022/07/31 07:37:40;;;;;;;3.03;1.80;;;;;;;24.59;46.20;98761.81;4184740;28;20252;-57
2022/07/31 07:39:43;;;;;;;1.63;1.48;;;;;;;24.76;46.57;98764.56;4172489;28;20218;-56
2022/07/31 07:41:45;;;;;;;1.92;1.30;;;;;;;25.19;45.23;98767.13;4171325;28;20246;-57
2022/07/31 07:43:47;;;;;;;1.60;1.50;;;;;;;25.16;46.47;98757.44;4174248;28;20254;-54
2022/07/31 07:45:53;;;;;;;3.88;1.98;;;;;;;24.88;45.34;98756.28;4169173;28;20210;-55
2022/07/31 07:47:55;;;;;;;2.33;1.30;;;;;;;25.05;45.41;98755.38;4172123;28;20203;-55
2022/07/31 07:50:08;;;;;;;1.38;1.20;;;;;;;25.04;44.71;98757.34;4170637;28;20235;-57
2022/07/31 07:52:11;;;;;;;4.68;1.48;;;;;;;24.91;44.31;98755.59;4170903;28;20231;-56
2022/07/31 07:54:14;;;;;;;2.63;1.30;;;;;;;25.42;44.15;98755.31;4174781;28;20253;-54
2022/07/31 07:56:16;;;;;;;2.30;1.35;;;;;;;25.93;43.66;98752.09;4160052;28;20235;-55
2022/07/31 07:58:18;;;;;;;1.80;1.42;;;;;;;26.15;43.79;98753.69;4170034;28;20651;-54
2022/07/31 08:00:20;;;;;;;2.80;1.40;;;;;;;26.15;42.76;98748.09;4170043;28;20230;-55
2022/07/31 08:02:21;;;;;;;2.75;1.48;;;;;;;26.76;42.67;98739.47;4173407;28;20590;-55
2022/07/31 08:04:23;;;;;;;1.08;0.95;;;;;;;26.87;42.01;98740.63;4175191;28;20195;-56
2022/07/31 08:06:25;;;;;;;1.60;1.20;;;;;;;26.91;42.00;98740.78;4170297;28;20759;-56
2022/07/31 08:08:27;;;;;;;1.75;1.42;;;;;;;27.05;42.14;98742.03;4184876;28;20195;-54
2022/07/31 08:10:29;;;;;;;6.18;1.25;;;;;;;27.19;42.36;98731.28;4170112;28;20269;-56
2022/07/31 08:12:30;;;;;;;1.17;1.02;;;;;;;26.57;41.42;98730.78;4172882;28;20629;-56
2022/07/31 08:14:32;;;;;;;3.20;1.40;;;;;;;26.76;41.37;98731.03;4170128;28;20281;-54
2022/07/31 08:16:34;;;;;;;2.03;0.98;;;;;;;26.65;42.06;98729.84;4168527;28;21898;-57
2022/07/31 08:18:36;;;;;;;2.08;1.08;;;;;;;26.47;41.47;98731.19;4172162;28;20212;-53
2022/07/31 08:20:38;;;;;;;2.42;1.02;;;;;;;26.27;41.79;98731.28;4171568;28;20207;-54
2022/07/31 08:22:39;;;;;;;2.40;1.00;;;;;;;26.36;42.09;98735.63;4175968;28;20218;-54
2022/07/31 08:24:41;;;;;;;3.00;1.08;;;;;;;26.62;41.82;98732.53;4169554;28;20283;-54
2022/07/31 08:29:11;;;;;;;1.48;0.80;;;;;;;27.02;41.21;98730.69;4171288;28;20216;-56
2022/07/31 08:31:14;;;;;;;2.80;1.02;;;;;;;27.14;40.83;98725.06;4175527;28;20790;-56
2022/07/31 08:33:15;;;;;;;1.90;1.10;;;;;;;27.07;40.74;98722.03;4175920;28;20229;-55
2022/07/31 08:35:19;;;;;;;2.05;0.85;;;;;;;26.95;40.20;98725.66;4174749;28;20238;-56
2022/07/31 08:37:21;;;;;;;0.77;0.77;;;;;;;27.25;42.40;98724.25;4171535;28;20238;-57
2022/07/31 08:39:44;;;;;;;2.33;0.98;;;;;;;27.33;40.55;98720.47;4170305;28;20269;-56
2022/07/31 08:41:46;;;;;;;2.67;1.00;;;;;;;27.70;40.77;98721.22;4167319;28;20258;-55
2022/07/31 08:43:47;;;;;;;1.80;0.90;;;;;;;27.84;40.33;98725.28;4170998;28;20616;-56
2022/07/31 08:46:06;;;;;;;1.25;0.80;;;;;;;27.83;40.42;98717.22;4181597;28;20203;-57
2022/07/31 08:48:08;;;;;;;3.08;0.90;;;;;;;27.94;41.05;98719.16;4172492;28;20223;-55
2022/07/31 08:50:12;;;;;;;2.17;1.40;;;;;;;27.99;40.38;98715.28;4168666;28;20207;-56
2022/07/31 08:52:25;;;;;;;5.72;1.05;;;;;;;27.59;40.46;98708.84;4184432;28;20227;-54
2022/07/31 08:54:28;;;;;;;2.25;1.00;;;;;;;27.72;40.98;98711.25;4169290;28;20207;-56
2022/07/31 08:56:33;;;;;;;1.85;1.25;;;;;;;27.31;40.37;98710.78;4171419;28;20206;-56
2022/07/31 08:58:35;;;;;;;1.23;0.90;;;;;;;27.68;42.04;98713.16;4170670;28;20208;-56
2022/07/31 09:00:41;;;;;;;1.77;0.77;;;;;;;28.07;40.27;98712.31;4172059;28;20211;-55
2022/07/31 09:02:43;;;;;;;0.70;0.60;;;;;;;28.24;39.96;98716.81;4169616;28;20639;-57
2022/07/31 09:04:46;;;;;;;1.50;1.35;;;;;;;28.56;39.28;98705.22;4168866;28;20855;-55
2022/07/31 09:06:53;;;;;;;0.70;0.70;;;;;;;28.84;38.68;98700.31;4170284;28;20612;-54
2022/07/31 09:08:55;;;;;;;0.77;0.77;;;;;;;28.83;38.90;98695.84;4175385;28;20195;-54
2022/07/31 09:11:09;;;;;;;1.45;0.80;;;;;;;29.14;38.75;98707.13;4167416;28;20228;-54
2022/07/31 09:13:16;;;;;;;1.88;0.77;;;;;;;29.27;38.70;98708.66;4167464;28;20246;-55
2022/07/31 09:15:27;;;;;;;2.78;0.70;;;;;;;29.51;38.02;98705.56;4173084;28;20204;-53
2022/07/31 09:17:33;;;;;;;2.17;1.00;;;;;;;30.13;37.34;98708.16;4170833;28;20203;-56
2022/07/31 09:19:40;;;;;;;2.03;0.80;;;;;;;30.05;37.37;98706.31;4166539;28;20215;-56
2022/07/31 09:21:54;;;;;;;1.25;0.90;;;;;;;30.27;37.25;98705.59;4186784;28;20734;-54
2022/07/31 09:23:56;;;;;;;1.17;0.70;;;;;;;30.21;37.26;98700.63;4170441;28;20204;-57
2022/07/31 09:26:04;;;;;;;1.45;0.52;;;;;;;29.77;37.31;98686.00;4185981;28;20199;-56
2022/07/31 09:28:06;;;;;;;4.03;0.82;;;;;;;30.21;37.21;98701.44;4186651;28;20626;-56
2022/07/31 09:30:08;;;;;;;1.92;0.93;;;;;;;29.82;37.29;98693.34;4170470;28;21201;-57
2022/07/31 09:32:20;;;;;;;2.15;1.00;;;;;;;29.69;37.17;98689.88;4154714;28;20258;-56
2022/07/31 09:34:28;;;;;;;3.83;1.08;;;;;;;29.45;37.25;98686.47;4169044;28;20196;-55
2022/07/31 09:36:31;;;;;;;1.67;0.80;;;;;;;29.70;37.50;98683.03;4170678;28;20215;-55
2022/07/31 09:38:35;;;;;;;1.90;0.93;;;;;;;30.01;36.87;98685.69;4175220;28;20207;-55
2022/07/31 09:40:42;;;;;;;2.63;0.90;;;;;;;29.97;37.00;98684.78;4169406;28;20211;-54
2022/07/31 09:42:58;;;;;;;1.92;0.98;;;;;;;29.79;37.24;98682.81;4168300;28;20203;-53
2022/07/31 09:45:14;;;;;;;5.15;1.10;;;;;;;29.47;37.30;98679.28;4173291;28;20617;-55
2022/07/31 09:47:23;;;;;;;1.75;0.75;;;;;;;29.28;37.94;98675.59;4183841;28;20256;-55